Time;durP1;ratioP1;P1;durP2;ratioP2;P2;SDS_P1;SDS_P2;PMS_P1;PMS_P2;Temp;Humidity;BMP_temperature;BMP_pressure;BME280_temperature;BME280_humidity;BME280_pressure;Samples;Min_cycle;Max_cycle;Signal;HPM_P1;HPM_P2
2022/05/02 00:02:16;;;;;;;18.52;14.60;;;6.80;99.90;;;;;;5092986;28;20024;-67
2022/05/02 00:04:41;;;;;;;19.02;14.50;;;6.80;99.90;;;;;;5094872;28;20494;-67
2022/05/02 00:07:07;;;;;;;25.92;15.27;;;6.90;99.90;;;;;;5097166;28;20085;-67
2022/05/02 00:09:32;;;;;;;22.80;15.25;;;7.00;99.90;;;;;;5097388;28;20385;-67
2022/05/02 00:11:58;;;;;;;25.08;16.17;;;7.10;99.90;;;;;;5097335;28;20024;-66
2022/05/02 00:14:24;;;;;;;20.73;14.88;;;7.20;99.90;;;;;;5097098;28;20027;-66
2022/05/02 00:16:49;;;;;;;20.98;14.20;;;7.20;99.90;;;;;;5097157;28;20153;-66
2022/05/02 00:19:15;;;;;;;20.90;14.82;;;7.30;99.90;;;;;;5096903;28;20394;-66
2022/05/02 00:21:40;;;;;;;20.40;14.40;;;7.30;99.90;;;;;;5096909;28;20098;-66
2022/05/02 00:24:07;;;;;;;19.75;13.88;;;7.40;99.90;;;;;;5095584;28;20462;-68
2022/05/02 00:26:32;;;;;;;19.75;14.23;;;7.50;99.90;;;;;;5097135;28;20032;-68
2022/05/02 00:28:58;;;;;;;24.00;14.27;;;7.60;99.90;;;;;;5096794;28;20024;-68
2022/05/02 00:31:23;;;;;;;20.45;14.75;;;7.60;99.90;;;;;;5096764;28;20413;-68
2022/05/02 00:33:49;;;;;;;19.27;14.30;;;7.70;99.90;;;;;;5096754;28;20024;-68
2022/05/02 00:36:15;;;;;;;20.55;13.60;;;7.80;99.90;;;;;;5095369;28;20063;-68
2022/05/02 00:38:41;;;;;;;19.20;13.45;;;8.00;99.90;;;;;;5096866;28;20482;-68
2022/05/02 00:41:07;;;;;;;19.48;14.32;;;8.20;99.90;;;;;;5096564;28;20024;-68
2022/05/02 00:43:32;;;;;;;18.45;14.05;;;8.30;99.90;;;;;;5096186;28;20054;-68
2022/05/02 00:45:59;;;;;;;18.60;13.60;;;8.30;99.90;;;;;;5096487;28;20106;-68
2022/05/02 00:48:25;;;;;;;18.27;13.45;;;8.30;99.90;;;;;;5096457;28;20036;-68
2022/05/02 00:50:51;;;;;;;17.05;12.65;;;8.40;99.90;;;;;;5096656;28;20486;-68
2022/05/02 00:53:22;;;;;;;18.67;12.50;;;8.40;99.90;;;;;;5096573;28;20032;-68
2022/05/02 00:55:47;;;;;;;17.45;13.05;;;8.40;99.90;;;;;;5096545;28;20032;-68
2022/05/02 00:58:14;;;;;;;16.27;12.82;;;8.30;99.90;;;;;;5095016;28;20032;-68
2022/05/02 01:00:40;;;;;;;16.95;13.15;;;8.30;99.90;;;;;;5096454;28;20501;-68
2022/05/02 01:03:08;;;;;;;16.42;12.40;;;8.20;99.90;;;;;;5096091;28;20110;-68
2022/05/02 01:07:08;;;;;;;17.23;12.30;;;8.10;99.90;;;;;;5094869;28;20470;-68
2022/05/02 01:08:26;;;;;;;19.33;12.85;;;8.10;99.90;;;;;;5095907;28;20040;-68
2022/05/02 01:10:54;;;;;;;17.40;13.45;;;8.00;99.90;;;;;;5096113;28;20019;-68
2022/05/02 01:13:39;;;;;;;15.98;11.40;;;8.00;99.90;;;;;;5096188;28;20052;-68
2022/05/02 01:16:10;;;;;;;17.70;12.77;;;8.00;99.90;;;;;;5095379;28;20078;-68
2022/05/02 01:18:36;;;;;;;18.00;13.82;;;7.90;99.90;;;;;;5095833;28;20059;-68
2022/05/02 01:21:08;;;;;;;18.90;13.02;;;7.80;99.90;;;;;;5095865;28;20016;-68
2022/05/02 01:23:33;;;;;;;17.70;12.80;;;7.80;99.90;;;;;;5095720;28;20059;-67
2022/05/02 01:25:59;;;;;;;19.38;13.25;;;7.70;99.90;;;;;;5094563;28;20078;-68
2022/05/02 01:28:24;;;;;;;16.50;13.13;;;7.70;99.90;;;;;;5095654;28;20111;-68
2022/05/02 01:30:49;;;;;;;21.77;13.20;;;7.60;99.90;;;;;;5095644;28;20027;-68
2022/05/02 01:33:15;;;;;;;21.30;13.73;;;7.50;99.90;;;;;;5095784;28;20054;-68
2022/05/02 01:35:40;;;;;;;21.10;13.88;;;7.50;99.90;;;;;;5095436;28;20032;-68
2022/05/02 01:38:06;;;;;;;17.17;13.65;;;7.50;99.90;;;;;;5094279;28;20028;-68
2022/05/02 01:40:31;;;;;;;24.00;14.98;;;7.40;99.90;;;;;;5095417;28;20504;-68
2022/05/02 01:42:57;;;;;;;19.27;14.50;;;7.30;99.90;;;;;;5095218;28;20051;-67
2022/05/02 01:45:22;;;;;;;20.60;14.18;;;7.20;99.90;;;;;;5094394;28;20543;-67
2022/05/02 01:47:48;;;;;;;22.63;14.38;;;7.20;99.90;;;;;;5095511;28;20069;-67
2022/05/02 01:50:13;;;;;;;22.48;15.52;;;7.10;99.90;;;;;;5095433;28;20062;-67
2022/05/02 01:52:39;;;;;;;18.35;14.10;;;7.00;99.90;;;;;;5095386;28;20529;-67
2022/05/02 01:55:05;;;;;;;19.67;14.50;;;7.00;99.90;;;;;;5095422;28;20024;-67
2022/05/02 01:57:31;;;;;;;21.67;14.32;;;6.90;99.90;;;;;;5095140;28;20034;-67
2022/05/02 01:59:56;;;;;;;20.83;14.52;;;6.90;99.90;;;;;;5095280;28;20102;-67
2022/05/02 02:02:22;;;;;;;25.05;16.20;;;6.80;99.90;;;;;;5095016;28;20024;-67
2022/05/02 02:07:32;;;;;;;23.42;15.98;;;6.80;99.90;;;;;;5094744;28;20040;-67
2022/05/02 02:09:58;;;;;;;23.92;15.30;;;6.90;99.90;;;;;;5094815;28;20036;-67
2022/05/02 02:12:23;;;;;;;24.35;15.43;;;7.00;99.90;;;;;;5094883;28;20097;-67
2022/05/02 02:14:49;;;;;;;23.15;16.27;;;7.10;99.90;;;;;;5094799;28;20105;-67
2022/05/02 02:17:14;;;;;;;21.98;15.70;;;7.20;99.90;;;;;;5094699;28;20562;-67
2022/05/02 02:19:40;;;;;;;22.50;14.45;;;7.10;99.90;;;;;;5094660;28;20031;-67
2022/05/02 02:22:20;;;;;;;22.85;14.82;;;7.10;99.90;;;;;;5094635;28;20056;-67
2022/05/02 02:24:47;;;;;;;22.90;15.43;;;7.10;99.90;;;;;;5094573;28;20032;-67
2022/05/02 02:27:13;;;;;;;23.52;15.77;;;7.00;99.90;;;;;;5093758;28;20023;-67
2022/05/02 02:29:38;;;;;;;21.75;15.15;;;6.90;99.90;;;;;;5094553;28;20409;-66
2022/05/02 02:32:05;;;;;;;24.60;15.93;;;6.90;99.90;;;;;;5094640;28;20024;-67
2022/05/02 02:34:31;;;;;;;21.33;15.60;;;6.80;99.90;;;;;;5093140;28;20110;-67
2022/05/02 02:36:57;;;;;;;20.70;15.10;;;6.70;99.90;;;;;;5094398;28;20060;-67
2022/05/02 02:39:22;;;;;;;24.05;15.48;;;6.60;99.90;;;;;;5094369;28;20020;-66
2022/05/02 02:41:48;;;;;;;19.27;14.98;;;6.50;99.90;;;;;;5094044;28;20063;-67
2022/05/02 02:44:13;;;;;;;22.58;15.75;;;6.40;99.90;;;;;;5092841;28;20035;-67
2022/05/02 02:46:39;;;;;;;24.42;15.32;;;6.30;99.90;;;;;;5094126;28;20471;-67
2022/05/02 02:49:04;;;;;;;22.92;16.27;;;6.30;99.90;;;;;;5094100;28;20035;-67
2022/05/02 02:51:30;;;;;;;27.55;16.83;;;6.20;99.90;;;;;;5094028;28;20378;-66
2022/05/02 02:53:55;;;;;;;20.27;15.23;;;6.20;99.90;;;;;;5094215;28;20481;-66
2022/05/02 02:56:22;;;;;;;23.70;16.55;;;6.10;99.90;;;;;;5094086;28;20142;-67
2022/05/02 02:58:47;;;;;;;29.90;17.67;;;6.10;99.90;;;;;;5093911;28;20027;-66
2022/05/02 03:01:13;;;;;;;28.85;17.92;;;6.00;99.90;;;;;;5094113;28;20024;-67
2022/05/02 03:03:39;;;;;;;24.83;17.98;;;6.00;99.90;;;;;;5093770;28;20114;-67
2022/05/02 03:06:05;;;;;;;27.13;18.00;;;6.00;99.90;;;;;;5093741;28;20024;-66
2022/05/02 03:08:34;;;;;;;24.23;17.27;;;6.10;99.90;;;;;;5093896;28;20020;-66
2022/05/02 03:11:00;;;;;;;26.23;18.33;;;6.10;99.90;;;;;;5092480;28;20024;-66
2022/05/02 03:13:26;;;;;;;26.42;17.58;;;6.20;99.90;;;;;;5093923;28;20032;-66
2022/05/02 03:15:52;;;;;;;23.58;17.25;;;6.20;99.90;;;;;;5093739;28;20136;-66
2022/05/02 03:18:17;;;;;;;24.08;17.23;;;6.20;99.90;;;;;;5093845;28;20046;-66
2022/05/02 03:20:43;;;;;;;28.15;17.48;;;6.20;99.90;;;;;;5093824;28;20039;-66
2022/05/02 03:23:08;;;;;;;25.17;17.67;;;6.20;99.90;;;;;;5093413;28;20027;-66
2022/05/02 03:25:34;;;;;;;26.80;17.77;;;6.30;99.90;;;;;;5093523;28;20024;-66
2022/05/02 03:27:59;;;;;;;26.02;16.42;;;6.20;99.90;;;;;;5093544;28;20024;-67
2022/05/02 03:30:25;;;;;;;25.58;17.67;;;6.30;99.90;;;;;;5093515;28;20024;-67
2022/05/02 03:32:50;;;;;;;25.90;17.45;;;6.20;99.90;;;;;;5093510;28;20028;-67
2022/05/02 03:35:16;;;;;;;22.50;16.50;;;6.30;99.90;;;;;;5093340;28;20032;-67
2022/05/02 03:37:41;;;;;;;24.02;16.33;;;6.30;99.90;;;;;;5093192;28;20490;-67
2022/05/02 03:40:08;;;;;;;22.35;16.70;;;6.20;99.90;;;;;;5093245;28;20032;-66
2022/05/02 03:42:33;;;;;;;22.27;16.63;;;6.20;99.90;;;;;;5093036;28;20079;-67
2022/05/02 03:45:00;;;;;;;23.15;16.35;;;6.20;99.90;;;;;;5093446;28;20359;-66
2022/05/02 03:47:26;;;;;;;24.15;17.50;;;6.20;99.90;;;;;;5093176;28;20020;-66
2022/05/02 03:49:51;;;;;;;22.90;17.73;;;6.20;99.90;;;;;;5093214;28;20035;-67
2022/05/02 03:52:17;;;;;;;22.25;16.63;;;6.20;99.90;;;;;;5093442;28;20028;-66
2022/05/02 03:54:42;;;;;;;23.13;16.35;;;6.10;99.90;;;;;;5093180;28;20103;-67
2022/05/02 03:57:08;;;;;;;24.80;16.50;;;6.10;99.90;;;;;;5093200;28;20382;-66
2022/05/02 03:59:33;;;;;;;24.08;16.73;;;6.00;99.90;;;;;;5093154;28;20027;-67
2022/05/02 04:01:59;;;;;;;21.88;16.33;;;6.00;99.90;;;;;;5093162;28;20032;-66
2022/05/02 04:04:24;;;;;;;25.58;16.92;;;6.00;99.90;;;;;;5093111;28;20398;-66
2022/05/02 04:06:50;;;;;;;24.17;17.83;;;5.90;99.90;;;;;;5093056;28;20028;-66
2022/05/02 04:09:15;;;;;;;25.92;17.50;;;5.90;99.90;;;;;;5093065;28;20028;-66
2022/05/02 04:11:41;;;;;;;27.83;19.05;;;5.80;99.90;;;;;;5091836;28;20458;-66
2022/05/02 04:14:07;;;;;;;26.88;18.40;;;5.80;99.90;;;;;;5093255;28;20115;-66
2022/05/02 04:16:32;;;;;;;29.30;19.10;;;5.80;99.90;;;;;;5091823;28;20144;-66
2022/05/02 04:18:58;;;;;;;25.27;18.33;;;5.80;99.90;;;;;;5093004;28;20036;-67
2022/05/02 04:21:23;;;;;;;25.67;17.63;;;5.80;99.90;;;;;;5092889;28;20405;-66
2022/05/02 04:23:49;;;;;;;27.40;18.10;;;5.80;99.90;;;;;;5092731;28;20036;-66
2022/05/02 04:26:14;;;;;;;25.95;17.88;;;5.90;99.90;;;;;;5093021;28;20060;-66
2022/05/02 04:28:40;;;;;;;26.83;17.80;;;6.00;99.90;;;;;;5092852;28;20028;-66
2022/05/02 04:31:05;;;;;;;26.02;16.73;;;6.10;99.90;;;;;;5092779;28;20032;-66
2022/05/02 04:33:31;;;;;;;25.08;16.65;;;6.30;99.90;;;;;;5092846;28;20032;-67
2022/05/02 04:35:57;;;;;;;25.23;16.23;;;6.40;99.90;;;;;;5093364;28;20066;-67
2022/05/02 04:38:22;;;;;;;21.80;15.38;;;6.50;99.90;;;;;;5093173;28;20171;-67
2022/05/02 04:40:48;;;;;;;29.38;16.67;;;6.50;99.90;;;;;;5074710;28;20032;-67
2022/05/02 04:43:14;;;;;;;23.30;15.05;;;6.60;99.90;;;;;;5092449;28;20093;-67
2022/05/02 04:45:40;;;;;;;22.77;15.73;;;6.70;99.90;;;;;;5092697;28;20027;-66
2022/05/02 04:48:06;;;;;;;25.15;15.30;;;6.80;99.90;;;;;;5092755;28;20103;-67
2022/05/02 04:50:31;;;;;;;24.88;16.25;;;7.00;99.90;;;;;;5094046;28;20146;-67
2022/05/02 04:52:57;;;;;;;17.65;13.77;;;7.10;99.90;;;;;;5096395;28;20035;-66
2022/05/02 04:55:22;;;;;;;21.08;15.15;;;7.20;99.90;;;;;;5095047;28;20035;-67
2022/05/02 04:57:48;;;;;;;19.45;14.23;;;7.40;99.90;;;;;;5095130;28;20363;-67
2022/05/02 05:00:16;;;;;;;17.77;13.25;;;7.70;99.90;;;;;;5096170;28;20142;-67
2022/05/02 05:02:42;;;;;;;19.00;13.55;;;7.80;99.90;;;;;;5096167;28;20386;-67
2022/05/02 05:05:08;;;;;;;19.80;13.63;;;8.00;99.90;;;;;;5094846;28;20016;-67
2022/05/02 05:07:36;;;;;;;22.02;12.95;;;8.10;99.90;;;;;;5096289;28;20040;-68
2022/05/02 05:10:02;;;;;;;19.40;13.05;;;8.10;99.90;;;;;;5096159;28;20474;-67
2022/05/02 05:12:52;;;;;;;16.38;12.35;;;8.20;99.90;;;;;;5094654;28;20018;-67
2022/05/02 05:18:44;;;;;;;17.95;11.57;;;8.50;99.90;;;;;;5095628;28;20081;-67
2022/05/02 05:21:49;;;;;;;16.83;13.10;;;8.70;99.90;;;;;;5095893;28;20020;-67
2022/05/02 05:24:45;;;;;;;15.98;12.15;;;8.90;99.90;;;;;;5095457;28;20024;-67
2022/05/02 05:27:51;;;;;;;17.25;12.25;;;8.90;99.90;;;;;;5094804;28;20433;-67
2022/05/02 05:30:20;;;;;;;17.05;11.70;;;9.10;99.90;;;;;;5094100;28;20020;-67
2022/05/02 05:33:06;;;;;;;17.75;11.88;;;9.30;99.90;;;;;;5095535;28;20461;-67
2022/05/02 05:36:00;;;;;;;17.13;11.93;;;9.20;99.90;;;;;;5094173;28;20390;-67
2022/05/02 05:38:38;;;;;;;16.77;11.93;;;9.30;99.90;;;;;;5095333;28;20043;-67
2022/05/02 05:41:22;;;;;;;14.70;11.57;;;9.30;99.90;;;;;;5095185;28;20055;-67
2022/05/02 05:44:04;;;;;;;24.58;11.90;;;9.30;99.90;;;;;;5095048;28;20044;-67
2022/05/02 05:46:56;;;;;;;19.73;11.70;;;9.40;99.90;;;;;;5095393;28;20020;-67
2022/05/02 05:49:41;;;;;;;19.08;11.82;;;9.70;99.90;;;;;;5095144;28;20024;-67
2022/05/02 05:52:15;;;;;;;16.50;11.57;;;10.00;99.90;;;;;;5095398;28;20373;-67
2022/05/02 05:55:03;;;;;;;18.23;12.32;;;10.10;99.90;;;;;;5095060;28;20016;-67
2022/05/02 05:57:38;;;;;;;16.83;11.82;;;10.40;99.90;;;;;;5095388;28;20550;-67
2022/05/02 06:00:06;;;;;;;16.65;11.57;;;10.80;99.90;;;;;;5093597;28;20073;-68
2022/05/02 06:03:08;;;;;;;19.27;12.35;;;11.20;99.90;;;;;;5095062;28;20028;-68
2022/05/02 06:05:40;;;;;;;18.58;11.85;;;11.40;99.90;;;;;;5094744;28;20111;-67
2022/05/02 06:08:10;;;;;;;22.17;12.23;;;11.90;99.90;;;;;;5077109;28;20028;-68
2022/05/02 06:10:37;;;;;;;16.05;11.32;;;11.90;99.90;;;;;;5094097;28;20028;-67
2022/05/02 06:13:04;;;;;;;38.60;17.30;;;12.20;99.90;;;;;;5094537;28;20024;-68
2022/05/02 06:18:34;;;;;;;15.82;11.95;;;12.00;99.90;;;;;;5093165;28;20056;-67
2022/05/02 06:21:03;;;;;;;15.83;11.77;;;11.90;99.90;;;;;;5093975;28;20035;-68
2022/05/02 06:23:33;;;;;;;15.48;11.13;;;12.00;99.90;;;;;;5094022;28;20031;-68
2022/05/02 06:25:58;;;;;;;15.13;11.13;;;12.30;99.90;;;;;;5094032;28;20042;-67
2022/05/02 06:28:30;;;;;;;17.25;12.05;;;12.10;99.90;;;;;;5093319;28;20051;-67
2022/05/02 06:30:59;;;;;;;18.30;11.80;;;12.40;99.90;;;;;;5097150;28;20087;-68
2022/05/02 06:33:25;;;;;;;12.98;11.10;;;12.30;99.90;;;;;;5074261;28;20478;-67
2022/05/02 06:36:03;;;;;;;15.07;11.10;;;12.00;99.90;;;;;;5083675;28;20121;-67
2022/05/02 06:38:58;;;;;;;14.48;11.30;;;11.90;99.90;;;;;;5091473;28;20031;-67
2022/05/02 06:41:54;;;;;;;16.55;11.13;;;12.00;99.90;;;;;;5093647;28;20089;-68
2022/05/02 06:48:00;;;;;;;14.40;10.60;;;12.60;99.90;;;;;;5085901;28;22324;-67
2022/05/02 06:50:29;;;;;;;13.70;10.27;;;12.80;99.90;;;;;;5074900;28;20494;-68
2022/05/02 06:53:14;;;;;;;13.50;10.63;;;12.80;99.90;;;;;;5074708;28;20028;-68
2022/05/02 06:56:13;;;;;;;14.18;10.90;;;12.90;99.90;;;;;;5083557;28;20036;-68
2022/05/02 06:59:03;;;;;;;12.90;10.95;;;12.70;99.90;;;;;;5086184;28;20393;-67
2022/05/02 07:01:49;;;;;;;12.73;10.18;;;12.90;99.90;;;;;;5085695;28;20028;-67
2022/05/02 07:04:40;;;;;;;16.67;10.75;;;13.00;99.90;;;;;;5087035;28;20032;-67
2022/05/02 07:07:30;;;;;;;15.23;10.35;;;13.30;99.90;;;;;;5083192;28;20036;-67
2022/05/02 07:10:20;;;;;;;15.80;10.32;;;13.70;99.90;;;;;;5082910;28;20047;-67
2022/05/02 07:13:25;;;;;;;13.25;9.85;;;13.40;99.90;;;;;;5089023;28;20428;-67
2022/05/02 07:16:14;;;;;;;18.75;10.20;;;13.80;99.90;;;;;;5085309;28;20440;-68
2022/05/02 07:19:06;;;;;;;15.23;9.98;;;13.90;99.90;;;;;;5088048;28;20028;-68
2022/05/02 07:21:42;;;;;;;15.88;9.32;;;14.90;99.90;;;;;;5082445;28;20025;-68
2022/05/02 07:27:04;;;;;;;13.55;8.95;;;15.60;99.90;;;;;;5053658;28;20876;-67
2022/05/02 07:29:32;;;;;;;15.60;10.02;;;16.50;99.90;;;;;;5065086;28;20027;-69
2022/05/02 07:32:01;;;;;;;10.50;8.80;;;16.90;99.90;;;;;;5061189;28;20024;-68
2022/05/02 07:34:29;;;;;;;12.68;9.02;;;17.90;97.50;;;;;;5069842;28;20475;-69
2022/05/02 07:36:55;;;;;;;10.75;7.72;;;18.30;95.70;;;;;;5068921;28;20557;-69
2022/05/02 07:39:22;;;;;;;8.90;7.85;;;18.80;93.40;;;;;;5068480;28;20104;-69
2022/05/02 07:41:49;;;;;;;9.18;7.57;;;18.00;93.60;;;;;;5069612;28;20021;-69
2022/05/02 07:44:17;;;;;;;9.98;8.02;;;19.20;92.80;;;;;;5067920;28;20433;-68
2022/05/02 07:46:46;;;;;;;12.70;7.78;;;19.00;90.80;;;;;;5063275;28;20033;-68
2022/05/02 07:49:21;;;;;;;12.68;8.02;;;18.90;90.60;;;;;;5050924;28;20032;-69
2022/05/02 07:51:51;;;;;;;9.85;8.07;;;19.70;90.20;;;;;;5064168;28;20032;-69
2022/05/02 07:54:27;;;;;;;9.38;7.38;;;20.20;86.20;;;;;;5068159;28;20043;-69
2022/05/02 07:56:57;;;;;;;11.02;7.68;;;20.70;83.10;;;;;;5054420;28;20029;-69
2022/05/02 07:59:25;;;;;;;9.00;6.95;;;20.90;82.10;;;;;;5056370;28;20372;-69
2022/05/02 08:01:52;;;;;;;9.27;8.25;;;20.70;80.60;;;;;;5059456;28;20028;-69
2022/05/02 08:04:18;;;;;;;8.57;7.10;;;20.20;80.20;;;;;;5063512;28;20025;-69
2022/05/02 08:07:01;;;;;;;9.45;7.32;;;20.80;81.10;;;;;;5055736;28;20103;-69
2022/05/02 08:09:45;;;;;;;10.53;7.90;;;21.50;76.80;;;;;;5067248;28;20024;-69
2022/05/02 08:12:39;;;;;;;9.75;7.32;;;21.70;73.90;;;;;;5069154;28;20301;-69
2022/05/02 08:15:31;;;;;;;10.52;8.05;;;21.40;72.60;;;;;;5051285;28;20033;-69
2022/05/02 08:18:36;;;;;;;10.57;7.53;;;21.70;74.90;;;;;;5067366;28;20025;-69
2022/05/02 08:21:07;;;;;;;14.05;8.50;;;22.10;71.70;;;;;;5063702;28;20087;-70
2022/05/02 08:27:15;;;;;;;10.73;8.07;;;22.90;67.90;;;;;;5066297;28;20083;-69
2022/05/02 08:35:57;;;;;;;12.27;8.02;;;22.30;68.20;;;;;;5089337;28;20410;-69
2022/05/02 08:44:23;;;;;;;12.07;7.75;;;23.90;64.50;;;;;;5070163;28;20361;-69
2022/05/02 08:47:28;;;;;;;12.20;8.23;;;23.70;62.70;;;;;;5068971;28;20029;-69
2022/05/02 08:50:19;;;;;;;9.93;8.13;;;23.20;62.20;;;;;;5062630;28;20025;-69
2022/05/02 08:56:21;;;;;;;9.38;8.23;;;24.00;61.10;;;;;;5107177;27;20929;-70
2022/05/02 08:59:09;;;;;;;11.40;7.63;;;23.10;63.70;;;;;;5110932;28;20024;-70
2022/05/02 09:02:06;;;;;;;14.02;8.60;;;23.40;61.40;;;;;;5082722;28;20023;-69
2022/05/02 09:05:03;;;;;;;11.25;8.18;;;22.50;63.90;;;;;;5070783;28;20025;-70
2022/05/02 09:08:09;;;;;;;11.10;7.70;;;22.00;63.60;;;;;;5110514;28;20032;-70
2022/05/02 09:11:31;;;;;;;11.07;8.52;;;23.40;61.90;;;;;;5095688;28;20119;-70
2022/05/02 09:14:27;;;;;;;11.55;8.52;;;23.30;63.80;;;;;;5090092;28;20028;-70
2022/05/02 09:17:27;;;;;;;12.93;8.38;;;23.00;61.10;;;;;;5068767;28;20068;-69
2022/05/02 09:20:16;;;;;;;10.45;8.23;;;23.10;64.40;;;;;;5089691;28;20090;-70
2022/05/02 09:23:19;;;;;;;10.07;8.52;;;23.60;62.00;;;;;;5078236;28;20576;-70
2022/05/02 09:26:08;;;;;;;11.93;8.95;;;22.60;63.50;;;;;;5068522;28;20029;-70
2022/05/02 09:28:57;;;;;;;13.18;8.60;;;22.90;63.50;;;;;;5086351;28;20475;-70
2022/05/02 09:31:52;;;;;;;11.98;8.02;;;23.10;63.40;;;;;;5089784;28;20386;-70
2022/05/02 09:34:34;;;;;;;14.50;8.75;;;23.40;64.30;;;;;;5089710;28;20371;-70
2022/05/02 09:37:03;;;;;;;11.77;8.80;;;23.40;61.60;;;;;;5068915;28;20475;-70
2022/05/02 09:40:08;;;;;;;13.30;8.68;;;23.80;60.50;;;;;;5069810;28;20037;-70
2022/05/02 09:43:05;;;;;;;10.15;8.57;;;23.80;59.80;;;;;;5084083;28;20031;-70
2022/05/02 09:52:00;;;;;;;12.25;8.70;;;24.20;58.40;;;;;;5061119;28;20432;-69
2022/05/02 09:58:09;;;;;;;10.23;8.18;;;23.00;61.20;;;;;;5035848;28;20384;-68
2022/05/02 10:01:07;;;;;;;12.32;9.27;;;23.60;61.80;;;;;;5050340;28;20104;-69
2022/05/02 10:03:38;;;;;;;12.75;9.60;;;22.80;61.50;;;;;;5049366;28;20037;-68
2022/05/02 10:06:07;;;;;;;13.65;9.43;;;22.50;62.60;;;;;;5050484;28;20033;-68
2022/05/02 10:11:43;;;;;;;16.20;9.45;;;23.80;61.20;;;;;;5109472;27;20412;-69
2022/05/02 10:14:50;;;;;;;12.32;9.45;;;23.70;59.20;;;;;;5090343;28;20031;-68
2022/05/02 10:17:41;;;;;;;13.18;9.48;;;23.20;62.30;;;;;;5090491;28;20027;-69
2022/05/02 10:20:15;;;;;;;11.55;10.07;;;22.70;61.10;;;;;;5099083;28;20117;-69
2022/05/02 10:23:11;;;;;;;12.80;10.25;;;23.10;61.10;;;;;;5110751;28;20499;-69
2022/05/02 10:25:48;;;;;;;15.35;9.85;;;23.20;59.80;;;;;;5097768;28;20453;-69
2022/05/02 10:28:48;;;;;;;17.10;10.45;;;22.50;62.00;;;;;;5090422;28;20067;-69
2022/05/02 10:31:20;;;;;;;11.75;10.57;;;23.20;62.20;;;;;;5106645;28;20398;-69
2022/05/02 10:33:49;;;;;;;12.30;10.40;;;22.90;61.40;;;;;;5110422;28;20066;-68
2022/05/02 10:36:18;;;;;;;13.85;10.18;;;23.30;60.90;;;;;;5110533;28;20094;-69
2022/05/02 10:39:05;;;;;;;13.32;10.38;;;23.50;60.00;;;;;;5096225;28;20020;-69
2022/05/02 10:41:48;;;;;;;11.32;10.18;;;23.80;59.60;;;;;;5090287;28;20042;-69
2022/05/02 10:44:15;;;;;;;;;;;23.60;59.80;;;;;;5110586;28;20387;-69
2022/05/02 10:46:44;;;;;;;15.35;10.85;;;23.50;62.10;;;;;;5106882;28;20038;-69
2022/05/02 10:49:19;;;;;;;14.32;10.45;;;22.40;63.10;;;;;;5097207;28;20063;-69
2022/05/02 10:51:55;;;;;;;12.15;10.27;;;22.20;65.00;;;;;;5097807;28;20031;-69
2022/05/02 10:54:45;;;;;;;15.63;11.60;;;22.00;64.80;;;;;;5090158;28;20482;-69
2022/05/02 10:57:24;;;;;;;15.93;12.73;;;21.30;65.60;;;;;;5104029;28;20024;-70
2022/05/02 10:59:54;;;;;;;15.43;12.45;;;21.00;67.30;;;;;;5093834;28;20115;-68
2022/05/02 11:02:34;;;;;;;13.65;11.75;;;21.00;66.60;;;;;;5088818;28;20390;-68
2022/05/02 11:05:09;;;;;;;13.52;11.75;;;21.60;67.60;;;;;;5104235;28;20031;-68
2022/05/02 11:10:20;;;;;;;14.20;11.82;;;21.80;67.90;;;;;;5110989;27;20408;-69
2022/05/02 11:13:07;;;;;;;15.07;11.23;;;22.30;67.70;;;;;;5110268;28;20028;-68
2022/05/02 11:15:53;;;;;;;13.85;11.52;;;22.10;69.20;;;;;;5092116;28;20032;-69
2022/05/02 11:21:42;;;;;;;14.48;11.48;;;21.90;66.00;;;;;;5107350;28;20527;-68
2022/05/02 11:24:36;;;;;;;16.77;12.07;;;22.10;66.40;;;;;;5108248;28;20024;-68
2022/05/02 11:27:27;;;;;;;16.65;11.98;;;22.70;66.20;;;;;;5110394;28;20070;-69
2022/05/02 11:30:09;;;;;;;19.55;13.05;;;22.50;68.80;;;;;;5108050;28;20020;-68
2022/05/02 11:35:37;;;;;;;15.57;11.48;;;22.10;67.80;;;;;;5112116;27;20387;-69
2022/05/02 11:38:37;;;;;;;13.10;11.77;;;21.20;68.30;;;;;;5111578;28;20040;-68
2022/05/02 11:41:15;;;;;;;16.20;11.98;;;21.40;69.30;;;;;;5095139;28;20169;-68
2022/05/02 11:43:43;;;;;;;15.95;12.13;;;21.90;66.70;;;;;;5131611;27;20024;-68
2022/05/02 11:46:22;;;;;;;18.05;12.65;;;21.60;66.60;;;;;;5131584;27;20027;-68
2022/05/02 11:49:12;;;;;;;16.98;13.52;;;21.40;67.50;;;;;;5131594;27;20020;-69
2022/05/02 11:51:47;;;;;;;18.05;12.20;;;21.40;67.30;;;;;;5131326;27;20030;-68
2022/05/02 11:57:31;;;;;;;17.23;12.90;;;21.80;67.70;;;;;;5110991;27;20400;-69
2022/05/02 12:00:05;;;;;;;16.13;13.13;;;22.50;63.80;;;;;;5110853;28;20036;-69
2022/05/02 12:02:42;;;;;;;15.55;12.35;;;22.30;64.30;;;;;;5111207;28;20439;-69
2022/05/02 12:07:59;;;;;;;17.40;11.40;;;22.40;64.30;;;;;;5090540;28;20317;-69
2022/05/02 12:10:41;;;;;;;16.98;13.10;;;22.60;68.10;;;;;;5074073;28;20034;-69
2022/05/02 12:13:12;;;;;;;12.90;11.57;;;21.90;64.60;;;;;;5063945;28;20021;-69
2022/05/02 12:15:54;;;;;;;16.88;12.77;;;21.40;66.10;;;;;;5070524;28;20017;-68
2022/05/02 12:18:20;;;;;;;15.90;11.60;;;21.40;66.00;;;;;;5070186;28;20025;-69
2022/05/02 12:20:54;;;;;;;16.60;12.00;;;21.50;67.10;;;;;;5070306;28;20099;-68
2022/05/02 12:23:22;;;;;;;13.00;10.52;;;22.00;65.50;;;;;;5070435;28;20021;-68
2022/05/02 12:25:50;;;;;;;15.15;11.70;;;22.70;67.60;;;;;;5070059;28;20024;-69
2022/05/02 12:28:18;;;;;;;14.30;12.10;;;22.70;62.60;;;;;;5067332;28;20383;-69
2022/05/02 12:30:50;;;;;;;14.20;11.88;;;22.30;61.60;;;;;;5062761;28;20036;-69
2022/05/02 12:33:20;;;;;;;14.70;10.55;;;22.20;62.60;;;;;;5070777;28;20437;-68
2022/05/02 12:35:46;;;;;;;15.30;11.73;;;22.60;62.90;;;;;;5090285;28;20024;-69
2022/05/02 12:38:15;;;;;;;14.00;10.50;;;22.60;64.10;;;;;;5063453;28;20487;-69
2022/05/02 12:40:42;;;;;;;17.73;11.95;;;22.80;64.40;;;;;;5064305;28;20025;-69
2022/05/02 12:43:20;;;;;;;16.58;11.27;;;22.90;62.70;;;;;;5069816;28;20120;-68
2022/05/02 12:45:47;;;;;;;16.55;12.10;;;22.60;63.50;;;;;;5062607;28;20025;-69
2022/05/02 12:48:36;;;;;;;14.85;10.43;;;21.50;64.60;;;;;;5049674;28;20143;-69
2022/05/02 12:51:06;;;;;;;17.52;11.27;;;21.90;68.00;;;;;;5049626;28;20108;-68
2022/05/02 12:56:17;;;;;;;18.30;12.70;;;21.60;67.70;;;;;;5058537;28;20112;-69
2022/05/02 13:01:43;;;;;;;14.30;10.63;;;21.50;67.10;;;;;;5069133;28;20025;-69
2022/05/02 13:04:15;;;;;;;16.55;11.88;;;21.60;70.00;;;;;;5051260;28;20541;-68
2022/05/02 13:06:42;;;;;;;14.55;10.38;;;20.80;69.80;;;;;;5049044;28;20459;-69
2022/05/02 13:09:15;;;;;;;14.75;10.70;;;20.60;72.80;;;;;;5064701;28;20457;-68
2022/05/02 13:11:43;;;;;;;18.67;11.05;;;20.80;70.00;;;;;;5049595;28;20387;-68
2022/05/02 13:14:20;;;;;;;13.85;11.40;;;20.90;71.70;;;;;;5049553;28;20036;-68
2022/05/02 13:16:47;;;;;;;16.63;11.20;;;21.10;71.60;;;;;;5049310;28;20084;-69
2022/05/02 13:19:13;;;;;;;15.32;10.65;;;20.90;69.90;;;;;;5036723;28;20026;-68
2022/05/02 13:21:39;;;;;;;12.60;11.20;;;20.90;69.40;;;;;;5035857;28;20052;-68
2022/05/02 13:24:08;;;;;;;15.05;10.27;;;20.70;69.60;;;;;;5036004;28;20037;-68
2022/05/02 13:32:10;;;;;;;15.40;10.35;;;21.50;70.10;;;;;;5111068;27;20416;-68
2022/05/02 13:35:00;;;;;;;11.68;10.07;;;21.30;70.20;;;;;;5111022;28;20396;-68
2022/05/02 13:37:54;;;;;;;13.15;10.80;;;21.50;69.10;;;;;;5098102;28;20505;-68
2022/05/02 13:40:21;;;;;;;16.02;11.32;;;20.90;69.10;;;;;;5090522;28;20012;-68
2022/05/02 13:42:59;;;;;;;15.32;10.35;;;20.50;71.90;;;;;;5090749;28;20032;-68
2022/05/02 13:46:02;;;;;;;12.02;10.13;;;20.80;71.70;;;;;;5090685;28;20505;-68
2022/05/02 13:48:52;;;;;;;13.13;10.23;;;20.90;71.00;;;;;;5090344;28;20024;-68
2022/05/02 13:54:04;;;;;;;17.92;10.55;;;20.90;70.70;;;;;;5081100;27;1847981;-69
2022/05/02 13:56:38;;;;;;;16.05;11.60;;;21.20;69.40;;;;;;5131631;28;20110;-69
2022/05/02 13:59:27;;;;;;;15.02;10.90;;;21.10;69.10;;;;;;5131751;28;20533;-68
2022/05/02 14:02:10;;;;;;;11.73;10.50;;;21.20;70.80;;;;;;5131288;28;20024;-67
2022/05/02 14:04:42;;;;;;;12.83;10.47;;;21.00;68.00;;;;;;5096597;28;20028;-68
2022/05/02 14:07:11;;;;;;;13.73;10.15;;;20.90;68.90;;;;;;5112894;28;20601;-69
2022/05/02 14:09:49;;;;;;;15.70;10.60;;;20.50;71.50;;;;;;5130394;28;20469;-68
2022/05/02 14:15:14;;;;;;;13.07;8.98;;;20.30;72.40;;;;;;5066068;28;20435;-68
2022/05/02 14:17:45;;;;;;;13.32;10.23;;;20.40;73.90;;;;;;5050423;28;20033;-68
2022/05/02 14:20:24;;;;;;;14.15;10.05;;;20.70;71.90;;;;;;5070430;28;20125;-68
2022/05/02 14:23:08;;;;;;;12.35;9.60;;;20.90;72.20;;;;;;5068714;28;20594;-68
2022/05/02 14:25:39;;;;;;;13.93;9.95;;;21.30;70.80;;;;;;5060647;28;20052;-69
2022/05/02 14:28:12;;;;;;;13.57;10.32;;;21.10;68.70;;;;;;5057780;28;20025;-68